createdAt,value
2022-08-12T00:03:17.732Z,18.40
2022-08-12T00:06:41.567Z,18.40
2022-08-12T00:10:01.151Z,18.40
2022-08-12T00:13:20.689Z,18.30
2022-08-12T00:16:40.270Z,18.40
2022-08-12T00:19:59.910Z,18.30
2022-08-12T00:23:21.168Z,18.30
2022-08-12T00:26:41.493Z,18.30
2022-08-12T00:30:02.318Z,18.20
2022-08-12T00:33:22.702Z,18.30
2022-08-12T00:36:50.372Z,18.30
2022-08-12T00:40:11.990Z,17.90
2022-08-12T00:43:16.783Z,17.70
2022-08-12T00:46:32.947Z,17.50
2022-08-12T00:49:35.737Z,17.40
2022-08-12T00:52:37.096Z,17.20
2022-08-12T00:55:46.808Z,17.40
2022-08-12T00:58:51.036Z,17.50
2022-08-12T01:02:04.243Z,17.60
2022-08-12T01:05:38.795Z,17.50
2022-08-12T01:08:59.584Z,17.60
2022-08-12T01:12:01.967Z,17.80
2022-08-12T01:15:04.182Z,17.80
2022-08-12T01:18:06.873Z,17.90
2022-08-12T01:21:24.835Z,17.90
2022-08-12T01:25:07.232Z,17.90
2022-08-12T01:28:14.610Z,17.90
2022-08-12T01:31:20.269Z,18.00
2022-08-12T01:34:36.186Z,18.00
2022-08-12T01:38:08.543Z,18.10
2022-08-12T01:41:14.061Z,18.10
2022-08-12T01:44:20.585Z,18.00
2022-08-12T01:48:15.164Z,17.90
2022-08-12T01:52:14.843Z,17.70
2022-08-12T01:55:23.668Z,17.50
2022-08-12T01:59:01.238Z,17.20
2022-08-12T02:02:11.407Z,17.10
2022-08-12T02:05:49.171Z,17.00
2022-08-12T02:09:18.601Z,17.10
2022-08-12T02:13:00.800Z,17.10
2022-08-12T02:16:32.053Z,17.00
2022-08-12T02:20:10.100Z,16.90
2022-08-12T02:23:15.240Z,16.90
2022-08-12T02:26:18.702Z,16.70
2022-08-12T02:29:20.323Z,16.70
2022-08-12T02:32:22.302Z,16.60
2022-08-12T02:35:26.674Z,16.50
2022-08-12T02:38:31.298Z,16.60
2022-08-12T02:41:37.241Z,16.50
2022-08-12T02:44:44.871Z,16.50
2022-08-12T02:47:58.318Z,16.20
2022-08-12T02:51:07.529Z,16.20
2022-08-12T02:54:08.785Z,16.10
2022-08-12T02:57:13.378Z,15.80
2022-08-12T03:00:16.342Z,15.90
2022-08-12T03:03:22.493Z,15.90
2022-08-12T03:06:27.573Z,15.80
2022-08-12T03:09:43.090Z,15.50
2022-08-12T03:13:00.564Z,15.40
2022-08-12T03:16:02.249Z,15.10
2022-08-12T03:19:04.042Z,14.80
2022-08-12T03:22:13.687Z,15.00
2022-08-12T03:25:27.611Z,15.00
2022-08-12T03:28:51.322Z,14.80
2022-08-12T03:32:00.631Z,14.70
2022-08-12T03:35:07.538Z,14.60
2022-08-12T03:38:12.568Z,14.70
2022-08-12T03:41:36.146Z,14.50
2022-08-12T03:45:34.540Z,14.50
2022-08-12T03:49:03.838Z,14.70
2022-08-12T03:52:24.982Z,15.20
2022-08-12T03:55:44.942Z,15.50
2022-08-12T03:59:05.223Z,15.20
2022-08-12T04:02:06.195Z,14.80
2022-08-12T04:05:12.947Z,14.50
2022-08-12T04:08:26.669Z,14.40
2022-08-12T04:11:47.626Z,14.40
2022-08-12T04:14:49.939Z,14.40
2022-08-12T04:18:06.697Z,14.70
2022-08-12T04:21:12.398Z,14.50
2022-08-12T04:24:13.602Z,14.30
2022-08-12T04:27:15.265Z,14.30
2022-08-12T04:30:32.688Z,14.40
2022-08-12T04:33:37.400Z,14.60
2022-08-12T04:36:41.244Z,14.60
2022-08-12T04:39:43.991Z,14.50
2022-08-12T04:42:45.839Z,14.40
2022-08-12T04:45:48.235Z,14.40
2022-08-12T04:48:49.688Z,14.50
2022-08-12T04:51:54.616Z,14.50
2022-08-12T04:55:01.392Z,14.60
2022-08-12T04:58:02.457Z,14.70
2022-08-12T05:01:03.952Z,14.80
2022-08-12T05:04:08.197Z,14.80
2022-08-12T05:07:09.062Z,14.80
2022-08-12T05:10:10.626Z,14.90
2022-08-12T05:13:17.047Z,15.10
2022-08-12T05:16:18.084Z,15.20
2022-08-12T05:19:29.751Z,15.40
2022-08-12T05:22:32.167Z,15.40
2022-08-12T05:25:38.739Z,15.50
2022-08-12T05:28:40.697Z,15.50
2022-08-12T05:31:48.243Z,15.40
2022-08-12T05:34:50.711Z,15.70
2022-08-12T05:38:15.410Z,15.90
2022-08-12T05:41:22.080Z,16.10
2022-08-12T05:44:23.190Z,16.30
2022-08-12T05:47:24.440Z,16.50
2022-08-12T05:50:46.750Z,16.70
2022-08-12T05:53:48.542Z,16.70
2022-08-12T05:56:49.986Z,16.90
2022-08-12T05:59:50.807Z,17.00
2022-08-12T06:03:03.988Z,17.00
2022-08-12T06:06:07.276Z,17.10
2022-08-12T06:09:11.479Z,17.20
2022-08-12T06:12:12.761Z,17.20
2022-08-12T06:15:14.037Z,17.30
2022-08-12T06:18:16.360Z,17.40
2022-08-12T06:21:23.468Z,17.60
2022-08-12T06:24:28.728Z,17.60
2022-08-12T06:27:29.927Z,17.70
2022-08-12T06:30:38.436Z,17.90
2022-08-12T06:33:55.747Z,18.00
2022-08-12T06:37:02.096Z,18.00
2022-08-12T06:40:04.786Z,18.00
2022-08-12T06:43:05.939Z,18.00
2022-08-12T06:46:06.936Z,18.10
2022-08-12T06:49:08.883Z,18.40
2022-08-12T06:52:09.656Z,18.50
2022-08-12T06:55:20.911Z,18.60
2022-08-12T06:58:25.235Z,18.70
2022-08-12T07:01:26.868Z,18.80
2022-08-12T07:04:43.216Z,19.10
2022-08-12T07:07:48.069Z,19.10
2022-08-12T07:10:59.300Z,19.30
2022-08-12T07:14:12.987Z,19.50
2022-08-12T07:17:18.251Z,19.60
2022-08-12T07:20:42.620Z,19.70
2022-08-12T07:23:42.355Z,19.90
2022-08-12T07:26:44.835Z,19.80
2022-08-12T07:30:03.776Z,19.80
2022-08-12T07:33:09.450Z,19.80
2022-08-12T07:36:14.414Z,20.10
2022-08-12T07:39:15.613Z,20.30
2022-08-12T07:42:17.220Z,20.40
2022-08-12T07:45:18.110Z,20.40
2022-08-12T07:48:19.575Z,20.70
2022-08-12T07:51:24.989Z,20.80
2022-08-12T07:54:27.195Z,20.80
2022-08-12T07:57:28.070Z,20.90
2022-08-12T08:00:32.827Z,21.10
2022-08-12T08:03:34.687Z,21.20
2022-08-12T08:06:44.930Z,21.20
2022-08-12T08:09:46.127Z,21.40
2022-08-12T08:12:53.690Z,21.80
2022-08-12T08:16:04.260Z,21.80
2022-08-12T08:19:05.318Z,22.00
2022-08-12T08:22:06.055Z,22.00
2022-08-12T08:25:35.304Z,22.10
2022-08-12T08:28:29.440Z,22.30
2022-08-12T08:31:30.638Z,22.60
2022-08-12T08:34:53.129Z,22.60
2022-08-12T08:37:53.301Z,22.90
2022-08-12T08:41:12.808Z,23.10
2022-08-12T08:44:39.665Z,23.20
2022-08-12T08:47:45.144Z,23.20
2022-08-12T08:50:46.108Z,23.50
2022-08-12T08:54:08.806Z,23.90
2022-08-12T08:57:10.090Z,24.00
2022-08-12T09:00:20.711Z,24.40
2022-08-12T09:04:21.377Z,24.70
2022-08-12T09:06:53.787Z,24.70
2022-08-12T09:10:02.097Z,25.00
2022-08-12T09:13:29.090Z,25.30
2022-08-12T09:16:45.659Z,25.40
2022-08-12T09:19:57.330Z,25.80
2022-08-12T09:23:01.417Z,26.10
2022-08-12T09:26:10.057Z,26.30
2022-08-12T09:29:14.317Z,26.80
2022-08-12T09:32:56.722Z,26.50
2022-08-12T09:35:44.451Z,26.60
2022-08-12T09:38:58.949Z,26.90
2022-08-12T09:42:40.495Z,26.80
2022-08-12T09:46:11.004Z,27.00
2022-08-12T09:49:16.239Z,27.50
2022-08-12T09:52:19.321Z,27.40
2022-08-12T09:56:06.176Z,28.00
2022-08-12T09:58:56.725Z,27.80
2022-08-12T10:02:44.817Z,27.70
2022-08-12T10:05:22.851Z,28.70
2022-08-12T10:08:44.643Z,27.40
2022-08-12T10:12:13.176Z,28.80
2022-08-12T10:15:15.524Z,29.00
2022-08-12T10:18:51.983Z,29.60
2022-08-12T10:21:56.728Z,29.60
2022-08-12T10:25:17.837Z,30.30
2022-08-12T10:28:38.937Z,29.40
2022-08-12T10:32:21.684Z,30.30
2022-08-12T10:35:02.146Z,30.70
2022-08-12T10:38:35.355Z,30.60
2022-08-12T10:41:58.544Z,31.40
2022-08-12T10:45:07.971Z,32.00
2022-08-12T10:48:21.768Z,30.90
2022-08-12T10:51:56.520Z,31.20
2022-08-12T10:54:56.213Z,30.50
2022-08-12T10:58:14.199Z,30.70
2022-08-12T11:04:14.723Z,31.80
2022-08-12T11:04:49.119Z,32.60
2022-08-12T11:08:37.084Z,32.00
2022-08-12T11:12:07.741Z,32.00
2022-08-12T11:14:49.157Z,33.10
2022-08-12T11:17:53.363Z,31.50
2022-08-12T11:20:57.991Z,30.90
2022-08-12T11:23:59.274Z,32.60
2022-08-12T11:27:11.011Z,33.00
2022-08-12T11:30:31.605Z,32.60
2022-08-12T11:34:05.099Z,33.70
2022-08-12T11:37:26.130Z,33.80
2022-08-12T11:40:28.805Z,32.00
2022-08-12T11:43:30.905Z,32.10
2022-08-12T11:46:37.388Z,32.80
2022-08-12T11:49:38.665Z,33.10
2022-08-12T11:52:56.318Z,33.70
2022-08-12T11:55:58.442Z,34.10
2022-08-12T12:02:02.052Z,33.70
2022-08-12T12:02:21.586Z,35.10
2022-08-12T12:05:22.794Z,34.60
2022-08-12T12:08:40.918Z,34.60
2022-08-12T12:11:49.381Z,34.60
2022-08-12T12:14:54.512Z,33.50
2022-08-12T12:17:56.607Z,33.60
2022-08-12T12:21:02.351Z,34.30
2022-08-12T12:24:06.467Z,35.00
2022-08-12T12:27:09.030Z,35.90
2022-08-12T12:30:18.523Z,35.80
2022-08-12T12:33:57.380Z,33.80
2022-08-12T12:36:54.820Z,34.50
2022-08-12T12:39:58.476Z,35.50
2022-08-12T12:43:05.167Z,35.30
2022-08-12T12:46:06.898Z,34.50
2022-08-12T12:49:10.993Z,34.90
2022-08-12T12:52:18.676Z,35.10
2022-08-12T12:55:23.416Z,35.10
2022-08-12T12:58:34.118Z,35.10
2022-08-12T13:01:41.964Z,35.20
2022-08-12T13:04:43.116Z,35.20
2022-08-12T13:07:54.251Z,35.80
2022-08-12T13:11:03.300Z,34.00
2022-08-12T13:14:12.555Z,32.80
2022-08-12T13:17:17.736Z,32.80
2022-08-12T13:20:38.526Z,33.30
2022-08-12T13:23:46.529Z,34.80
2022-08-12T13:26:48.881Z,35.30
2022-08-12T13:29:50.213Z,35.40
2022-08-12T13:33:00.630Z,35.40
2022-08-12T13:36:07.694Z,35.60
2022-08-12T13:39:12.416Z,35.90
2022-08-12T13:42:17.300Z,35.70
2022-08-12T13:45:18.885Z,34.20
2022-08-12T13:48:20.120Z,35.30
2022-08-12T13:51:24.383Z,35.80
2022-08-12T13:54:25.575Z,36.10
2022-08-12T13:57:47.003Z,34.30
2022-08-12T14:00:52.016Z,34.70
2022-08-12T14:03:54.381Z,35.20
2022-08-12T14:06:55.776Z,35.70
2022-08-12T14:10:16.927Z,36.60
2022-08-12T14:14:03.717Z,34.50
2022-08-12T14:16:49.339Z,35.70
2022-08-12T14:20:10.752Z,34.80
2022-08-12T14:24:01.093Z,34.50
2022-08-12T14:26:33.733Z,35.70
2022-08-12T14:29:56.430Z,35.60
2022-08-12T14:32:55.754Z,35.30
2022-08-12T14:35:57.533Z,36.00
2022-08-12T14:39:00.726Z,35.50
2022-08-12T14:42:01.970Z,34.60
2022-08-12T14:45:02.915Z,34.00
2022-08-12T14:48:08.747Z,33.90
2022-08-12T14:52:48.298Z,33.20
2022-08-12T14:57:58.502Z,33.90
2022-08-12T15:01:21.202Z,34.00
2022-08-12T15:04:29.251Z,33.70
2022-08-12T15:07:34.469Z,34.10
2022-08-12T15:10:53.930Z,32.60
2022-08-12T15:13:55.972Z,32.90
2022-08-12T15:16:56.847Z,32.30
2022-08-12T15:20:31.762Z,32.10
2022-08-12T15:23:29.200Z,32.70
2022-08-12T15:26:40.961Z,32.30
2022-08-12T15:29:41.818Z,31.10
2022-08-12T15:32:48.665Z,31.30
2022-08-12T15:35:53.424Z,31.30
2022-08-12T15:38:55.058Z,31.50
2022-08-12T15:41:56.951Z,31.30
2022-08-12T15:45:03.785Z,31.30
2022-08-12T15:48:16.714Z,31.00
2022-08-12T15:51:59.324Z,30.80
2022-08-12T15:55:06.209Z,31.00
2022-08-12T15:58:13.103Z,30.80
2022-08-12T16:01:19.562Z,31.20
2022-08-12T16:04:21.231Z,31.30
2022-08-12T16:07:30.168Z,31.10
2022-08-12T16:10:34.261Z,30.60
2022-08-12T16:13:36.312Z,30.20
2022-08-12T16:16:37.550Z,30.30
2022-08-12T16:20:04.068Z,30.10
2022-08-12T16:23:51.117Z,30.30
2022-08-12T16:26:35.380Z,30.00
2022-08-12T16:29:54.195Z,30.30
2022-08-12T16:32:55.278Z,29.80
2022-08-12T16:35:58.399Z,29.40
2022-08-12T16:39:03.413Z,29.10
2022-08-12T16:42:04.978Z,28.80
2022-08-12T16:45:09.780Z,28.60
2022-08-12T16:48:34.182Z,28.00
2022-08-12T16:51:40.540Z,27.80
2022-08-12T16:54:42.693Z,28.10
2022-08-12T16:57:48.676Z,28.80
2022-08-12T17:00:51.777Z,28.90
2022-08-12T17:04:09.032Z,27.90
2022-08-12T17:07:17.304Z,27.90
2022-08-12T17:10:36.038Z,27.50
2022-08-12T17:13:53.104Z,27.20
2022-08-12T17:16:55.710Z,26.90
2022-08-12T17:20:34.120Z,27.00
2022-08-12T17:23:47.941Z,27.10
2022-08-12T17:26:56.455Z,26.80
2022-08-12T17:30:03.010Z,26.80
2022-08-12T17:33:07.024Z,26.20
2022-08-12T17:36:10.630Z,26.00
2022-08-12T17:39:12.645Z,26.20
2022-08-12T17:42:34.310Z,26.00
2022-08-12T17:45:39.541Z,25.60
2022-08-12T17:48:54.651Z,25.60
2022-08-12T17:52:01.987Z,25.70
2022-08-12T17:55:07.075Z,25.30
2022-08-12T17:58:36.974Z,25.50
2022-08-12T18:01:45.276Z,25.20
2022-08-12T18:05:09.393Z,24.90
2022-08-12T18:08:11.230Z,24.70
2022-08-12T18:12:04.479Z,24.60
2022-08-12T18:14:54.751Z,24.40
2022-08-12T18:18:02.798Z,24.50
2022-08-12T18:21:08.704Z,24.10
2022-08-12T18:24:21.602Z,24.00
2022-08-12T18:27:43.786Z,23.80
2022-08-12T18:30:52.254Z,23.70
2022-08-12T18:33:54.772Z,23.60
2022-08-12T18:37:10.210Z,23.40
2022-08-12T18:40:44.585Z,23.10
2022-08-12T18:43:58.726Z,22.90
2022-08-12T18:47:04.931Z,23.00
2022-08-12T18:50:06.568Z,22.90
2022-08-12T18:54:05.528Z,22.70
2022-08-12T18:56:39.673Z,22.30
2022-08-12T19:00:00.783Z,22.00
2022-08-12T19:03:23.367Z,22.20
2022-08-12T19:06:36.026Z,22.10
2022-08-12T19:09:58.907Z,21.80
2022-08-12T19:13:23.324Z,21.50
2022-08-12T19:16:25.444Z,21.60
2022-08-12T19:19:27.506Z,21.40
2022-08-12T19:22:38.980Z,21.20
2022-08-12T19:26:01.605Z,21.10
2022-08-12T19:29:06.966Z,21.00
2022-08-12T19:32:13.759Z,20.90
2022-08-12T19:38:36.170Z,20.80
2022-08-12T19:41:55.708Z,20.70
2022-08-12T19:45:05.103Z,20.60
2022-08-12T19:48:17.469Z,20.60
2022-08-12T19:51:33.294Z,20.50
2022-08-12T19:54:34.495Z,20.50
2022-08-12T19:57:36.468Z,20.40
2022-08-12T20:00:44.768Z,20.40
2022-08-12T20:03:59.129Z,20.40
2022-08-12T20:07:01.601Z,20.40
2022-08-12T20:10:09.254Z,20.40
2022-08-12T20:13:18.098Z,20.30
2022-08-12T20:16:47.411Z,20.20
2022-08-12T20:20:01.701Z,20.10
2022-08-12T20:23:06.349Z,20.00
2022-08-12T20:26:11.108Z,20.00
2022-08-12T20:29:13.796Z,20.00
2022-08-12T20:32:15.103Z,19.90
2022-08-12T20:35:25.164Z,19.90
2022-08-12T20:38:46.762Z,19.80
2022-08-12T20:41:50.923Z,19.80
2022-08-12T20:44:53.039Z,19.70
2022-08-12T20:48:01.616Z,19.70
2022-08-12T20:51:19.493Z,19.80
2022-08-12T20:54:22.481Z,19.90
2022-08-12T20:57:24.104Z,19.80
2022-08-12T21:00:28.212Z,19.80
2022-08-12T21:03:52.725Z,19.70
2022-08-12T21:07:08.169Z,19.60
2022-08-12T21:10:11.181Z,19.60
2022-08-12T21:13:20.498Z,19.50
2022-08-12T21:16:35.622Z,19.40
2022-08-12T21:19:53.034Z,19.30
2022-08-12T21:22:55.270Z,19.30
2022-08-12T21:26:01.184Z,19.20
2022-08-12T21:29:04.818Z,19.10
2022-08-12T21:32:36.986Z,19.10
2022-08-12T21:35:27.848Z,19.00
2022-08-12T21:38:34.805Z,18.90
2022-08-12T21:41:37.860Z,18.80
2022-08-12T21:45:47.732Z,18.80
2022-08-12T21:48:00.579Z,18.70
2022-08-12T21:51:01.283Z,18.60
2022-08-12T21:54:06.795Z,18.60
2022-08-12T21:57:14.096Z,18.40
2022-08-12T22:00:17.011Z,18.30
2022-08-12T22:04:03.407Z,18.30
2022-08-12T22:06:59.290Z,18.30
2022-08-12T22:10:00.272Z,18.10
2022-08-12T22:13:06.919Z,18.10
2022-08-12T22:16:31.100Z,18.00
2022-08-12T22:19:35.491Z,18.00
2022-08-12T22:22:38.131Z,17.90
2022-08-12T22:25:40.129Z,17.90
2022-08-12T22:29:04.035Z,17.90
2022-08-12T22:32:05.743Z,17.80
2022-08-12T22:35:56.705Z,17.80
2022-08-12T22:38:55.694Z,17.80
2022-08-12T22:42:19.845Z,17.70
2022-08-12T22:45:48.606Z,17.70
2022-08-12T22:48:57.777Z,17.70
2022-08-12T22:52:08.635Z,17.80
2022-08-12T22:55:12.513Z,17.90
2022-08-12T22:58:13.794Z,17.80
2022-08-12T23:01:50.204Z,17.70
2022-08-12T23:04:38.722Z,17.60
2022-08-12T23:08:00.004Z,17.60
2022-08-12T23:11:05.984Z,17.50
2022-08-12T23:14:07.495Z,17.60
2022-08-12T23:17:08.770Z,17.60
2022-08-12T23:20:29.970Z,17.60
2022-08-12T23:23:30.580Z,17.60
2022-08-12T23:27:10.273Z,17.50
2022-08-12T23:30:19.029Z,17.50
2022-08-12T23:34:02.579Z,17.40
2022-08-12T23:36:44.655Z,17.40
2022-08-12T23:40:08.335Z,17.30
2022-08-12T23:43:12.415Z,17.30
2022-08-12T23:46:18.415Z,17.30
2022-08-12T23:49:55.720Z,17.30
2022-08-12T23:52:46.579Z,17.30
2022-08-12T23:55:50.059Z,17.30
2022-08-12T23:58:57.435Z,17.30
